RJDK(METAR)
03/25 23:00
METAR RJDK 251400Z AUTO VRB02KT 9999 BKN020 15/13 Q1020 RMK A3014=
戻る
トップページへ戻る
IMOC Co,.Ltd.